Decoded Metar for LFLX (CHATEAUROUX in FRANCE) (IATA:CHR) | Meteo·Mobile Aviation Weather
aviador You're here:

LFLX Decoded Metar

CHATEAUROUX in FRANCE
Report Time2019-07-21 16:30:00
UTC Time2019-07-21 16:53:33
Flight Rules vfr VFR
Wind290° at 04 kt
W.Decomp.*RWY 21: 0.7 kt HW 3.9 kt RCW
Visibility9999 m
Phenomena:N/A
Clouds:N/A
Expected CloudBase > 7,600 ft AGL from Temp-Dew spread
CeilingNone
Temp30°C (ISA +16)
Dew Point11°C (31% RH)
Heat Index28.8°C
AAT28.9°C
QNH1021 hPa
Density Alt2,260 ft
Elevation515 ft
Report Wrong Elevation
Raw Report
LFLX 211630Z AUTO 29004KT 180V330 CAVOK 30/11 Q1021 NOSIG=

Extra information for LFLX:More info

Metar Taf Metar & Taf Last 4 Metars F.Rules Stats Wind Profile Meteogram Temp Stats Airport Information Weather charts Add Link Nearby VenuesMetar ALERT Operation Metar Decoded Social comments